sensor_id;sensor_type;location;lat;lon;timestamp;temperature;humidity
65203;HTU21D;51788;45.124;38.966;2023-10-13T00:02:00;6.87;71.43
65203;HTU21D;51788;45.124;38.966;2023-10-13T00:04:29;6.84;71.51
65203;HTU21D;51788;45.124;38.966;2023-10-13T00:06:57;6.82;71.86
65203;HTU21D;51788;45.124;38.966;2023-10-13T00:09:23;6.84;72.09
65203;HTU21D;51788;45.124;38.966;2023-10-13T00:11:59;6.84;71.76
65203;HTU21D;51788;45.124;38.966;2023-10-13T00:14:25;6.78;71.66
65203;HTU21D;51788;45.124;38.966;2023-10-13T00:17:11;6.70;71.67
65203;HTU21D;51788;45.124;38.966;2023-10-13T00:19:45;6.65;71.67
65203;HTU21D;51788;45.124;38.966;2023-10-13T00:22:15;6.63;71.65
65203;HTU21D;51788;45.124;38.966;2023-10-13T00:24:43;6.57;71.63
65203;HTU21D;51788;45.124;38.966;2023-10-13T00:27:15;6.51;71.61
65203;HTU21D;51788;45.124;38.966;2023-10-13T00:29:56;6.43;71.63
65203;HTU21D;51788;45.124;38.966;2023-10-13T00:32:41;6.30;71.76
65203;HTU21D;51788;45.124;38.966;2023-10-13T00:35:12;6.20;71.96
65203;HTU21D;51788;45.124;38.966;2023-10-13T00:37:51;6.13;71.96
65203;HTU21D;51788;45.124;38.966;2023-10-13T00:40:22;6.12;72.08
65203;HTU21D;51788;45.124;38.966;2023-10-13T00:43:01;6.15;71.93
65203;HTU21D;51788;45.124;38.966;2023-10-13T00:45:46;6.17;71.77
65203;HTU21D;51788;45.124;38.966;2023-10-13T00:48:37;6.16;71.90
65203;HTU21D;51788;45.124;38.966;2023-10-13T00:51:12;6.15;71.96
65203;HTU21D;51788;45.124;38.966;2023-10-13T00:54:02;6.16;71.94
65203;HTU21D;51788;45.124;38.966;2023-10-13T00:56:33;6.15;71.89
65203;HTU21D;51788;45.124;38.966;2023-10-13T00:59:00;6.16;71.85
65203;HTU21D;51788;45.124;38.966;2023-10-13T01:01:29;6.25;72.44
65203;HTU21D;51788;45.124;38.966;2023-10-13T01:03:58;6.35;72.24
65203;HTU21D;51788;45.124;38.966;2023-10-13T01:06:26;6.35;72.11
65203;HTU21D;51788;45.124;38.966;2023-10-13T01:09:10;6.36;72.16
65203;HTU21D;51788;45.124;38.966;2023-10-13T01:14:16;6.35;71.99
65203;HTU21D;51788;45.124;38.966;2023-10-13T01:16:44;6.30;72.06
65203;HTU21D;51788;45.124;38.966;2023-10-13T01:19:11;6.29;72.06
65203;HTU21D;51788;45.124;38.966;2023-10-13T01:21:41;6.28;72.10
65203;HTU21D;51788;45.124;38.966;2023-10-13T01:24:07;6.28;72.06
65203;HTU21D;51788;45.124;38.966;2023-10-13T01:26:35;6.27;72.07
65203;HTU21D;51788;45.124;38.966;2023-10-13T01:29:07;6.29;72.09
65203;HTU21D;51788;45.124;38.966;2023-10-13T01:31:42;6.33;72.10
65203;HTU21D;51788;45.124;38.966;2023-10-13T01:34:21;6.37;72.11
65203;HTU21D;51788;45.124;38.966;2023-10-13T01:36:54;6.39;72.03
65203;HTU21D;51788;45.124;38.966;2023-10-13T01:39:22;6.37;72.07
65203;HTU21D;51788;45.124;38.966;2023-10-13T01:41:53;6.37;72.08
65203;HTU21D;51788;45.124;38.966;2023-10-13T01:44:25;6.38;72.15
65203;HTU21D;51788;45.124;38.966;2023-10-13T01:46:59;6.38;72.18
65203;HTU21D;51788;45.124;38.966;2023-10-13T01:49:27;6.40;72.28
65203;HTU21D;51788;45.124;38.966;2023-10-13T01:51:53;6.41;72.29
65203;HTU21D;51788;45.124;38.966;2023-10-13T01:54:19;6.41;72.36
65203;HTU21D;51788;45.124;38.966;2023-10-13T01:56:47;6.39;72.41
65203;HTU21D;51788;45.124;38.966;2023-10-13T01:59:14;6.39;72.52
65203;HTU21D;51788;45.124;38.966;2023-10-13T02:01:41;6.41;72.54
65203;HTU21D;51788;45.124;38.966;2023-10-13T02:04:08;6.42;72.70
65203;HTU21D;51788;45.124;38.966;2023-10-13T02:06:36;6.40;72.83
65203;HTU21D;51788;45.124;38.966;2023-10-13T02:09:09;6.38;72.94
65203;HTU21D;51788;45.124;38.966;2023-10-13T02:11:41;6.37;72.97
65203;HTU21D;51788;45.124;38.966;2023-10-13T02:14:08;6.38;72.93
65203;HTU21D;51788;45.124;38.966;2023-10-13T02:16:37;6.39;73.19
65203;HTU21D;51788;45.124;38.966;2023-10-13T02:19:03;6.37;73.18
65203;HTU21D;51788;45.124;38.966;2023-10-13T02:21:40;6.37;73.18
65203;HTU21D;51788;45.124;38.966;2023-10-13T02:24:09;6.37;73.38
65203;HTU21D;51788;45.124;38.966;2023-10-13T02:26:45;6.35;73.51
65203;HTU21D;51788;45.124;38.966;2023-10-13T02:29:11;6.35;73.54
65203;HTU21D;51788;45.124;38.966;2023-10-13T02:31:42;6.37;73.54
65203;HTU21D;51788;45.124;38.966;2023-10-13T02:34:08;6.37;73.93
65203;HTU21D;51788;45.124;38.966;2023-10-13T02:36:35;6.35;74.28
65203;HTU21D;51788;45.124;38.966;2023-10-13T02:39:13;6.29;74.25
65203;HTU21D;51788;45.124;38.966;2023-10-13T02:41:39;6.27;74.38
65203;HTU21D;51788;45.124;38.966;2023-10-13T02:44:07;6.26;74.49
65203;HTU21D;51788;45.124;38.966;2023-10-13T02:46:35;6.24;74.61
65203;HTU21D;51788;45.124;38.966;2023-10-13T02:49:02;6.24;74.68
65203;HTU21D;51788;45.124;38.966;2023-10-13T02:51:39;6.25;74.64
65203;HTU21D;51788;45.124;38.966;2023-10-13T02:54:09;6.24;74.57
65203;HTU21D;51788;45.124;38.966;2023-10-13T02:56:44;6.23;74.58
65203;HTU21D;51788;45.124;38.966;2023-10-13T02:59:26;6.23;74.56
65203;HTU21D;51788;45.124;38.966;2023-10-13T03:02:15;6.23;74.54
65203;HTU21D;51788;45.124;38.966;2023-10-13T03:04:58;6.25;74.57
65203;HTU21D;51788;45.124;38.966;2023-10-13T03:07:35;6.24;74.56
65203;HTU21D;51788;45.124;38.966;2023-10-13T03:10:03;6.27;74.60
65203;HTU21D;51788;45.124;38.966;2023-10-13T03:12:39;6.27;74.67
65203;HTU21D;51788;45.124;38.966;2023-10-13T03:15:06;6.23;74.70
65203;HTU21D;51788;45.124;38.966;2023-10-13T03:17:39;6.15;74.83
65203;HTU21D;51788;45.124;38.966;2023-10-13T03:20:13;6.09;74.96
65203;HTU21D;51788;45.124;38.966;2023-10-13T03:22:41;6.07;74.93
65203;HTU21D;51788;45.124;38.966;2023-10-13T03:25:14;6.04;75.04
65203;HTU21D;51788;45.124;38.966;2023-10-13T03:27:56;6.02;75.06
65203;HTU21D;51788;45.124;38.966;2023-10-13T03:30:22;6.00;75.16
65203;HTU21D;51788;45.124;38.966;2023-10-13T03:32:56;5.98;75.21
65203;HTU21D;51788;45.124;38.966;2023-10-13T03:35:22;5.99;75.17
65203;HTU21D;51788;45.124;38.966;2023-10-13T03:37:51;5.95;75.09
65203;HTU21D;51788;45.124;38.966;2023-10-13T03:40:17;5.90;75.21
65203;HTU21D;51788;45.124;38.966;2023-10-13T03:42:58;5.90;75.19
65203;HTU21D;51788;45.124;38.966;2023-10-13T03:45:37;5.92;75.21
65203;HTU21D;51788;45.124;38.966;2023-10-13T03:48:17;5.95;75.08
65203;HTU21D;51788;45.124;38.966;2023-10-13T03:50:59;5.98;75.05
65203;HTU21D;51788;45.124;38.966;2023-10-13T03:53:38;6.01;74.93
65203;HTU21D;51788;45.124;38.966;2023-10-13T03:56:24;6.07;74.92
65203;HTU21D;51788;45.124;38.966;2023-10-13T03:59:06;6.11;74.83
65203;HTU21D;51788;45.124;38.966;2023-10-13T04:01:36;6.11;74.84
65203;HTU21D;51788;45.124;38.966;2023-10-13T04:04:15;6.15;74.83
65203;HTU21D;51788;45.124;38.966;2023-10-13T04:06:55;6.19;74.80
65203;HTU21D;51788;45.124;38.966;2023-10-13T04:09:41;6.26;75.12
65203;HTU21D;51788;45.124;38.966;2023-10-13T04:12:14;6.34;75.04
65203;HTU21D;51788;45.124;38.966;2023-10-13T04:14:58;6.39;74.96
65203;HTU21D;51788;45.124;38.966;2023-10-13T04:17:30;6.51;75.34
65203;HTU21D;51788;45.124;38.966;2023-10-13T04:20:00;6.57;75.25
65203;HTU21D;51788;45.124;38.966;2023-10-13T04:22:41;6.59;75.20
65203;HTU21D;51788;45.124;38.966;2023-10-13T04:27:58;6.66;75.23
65203;HTU21D;51788;45.124;38.966;2023-10-13T04:30:50;6.71;75.21
65203;HTU21D;51788;45.124;38.966;2023-10-13T04:33:26;6.75;75.16
65203;HTU21D;51788;45.124;38.966;2023-10-13T04:36:04;6.80;75.17
65203;HTU21D;51788;45.124;38.966;2023-10-13T04:38:50;6.86;75.18
65203;HTU21D;51788;45.124;38.966;2023-10-13T04:41:35;6.93;75.03
65203;HTU21D;51788;45.124;38.966;2023-10-13T04:44:13;7.02;75.08
65203;HTU21D;51788;45.124;38.966;2023-10-13T04:47:00;7.12;75.02
65203;HTU21D;51788;45.124;38.966;2023-10-13T04:49:27;7.19;74.99
65203;HTU21D;51788;45.124;38.966;2023-10-13T04:52:12;7.30;74.86
65203;HTU21D;51788;45.124;38.966;2023-10-13T04:54:43;7.42;74.85
65203;HTU21D;51788;45.124;38.966;2023-10-13T04:57:21;7.54;74.76
65203;HTU21D;51788;45.124;38.966;2023-10-13T05:00:06;7.67;74.65
65203;HTU21D;51788;45.124;38.966;2023-10-13T05:02:36;7.78;74.63
65203;HTU21D;51788;45.124;38.966;2023-10-13T05:05:03;7.93;74.82
65203;HTU21D;51788;45.124;38.966;2023-10-13T05:07:33;8.09;74.77
65203;HTU21D;51788;45.124;38.966;2023-10-13T05:10:17;8.22;74.78
65203;HTU21D;51788;45.124;38.966;2023-10-13T05:13:02;8.36;74.91
65203;HTU21D;51788;45.124;38.966;2023-10-13T05:15:51;8.49;74.98
65203;HTU21D;51788;45.124;38.966;2023-10-13T05:18:35;8.60;75.08
65203;HTU21D;51788;45.124;38.966;2023-10-13T05:21:20;8.66;75.18
65203;HTU21D;51788;45.124;38.966;2023-10-13T05:24:05;8.77;75.15
65203;HTU21D;51788;45.124;38.966;2023-10-13T05:26:50;8.88;75.26
65203;HTU21D;51788;45.124;38.966;2023-10-13T05:29:38;8.95;75.27
65203;HTU21D;51788;45.124;38.966;2023-10-13T05:32:23;9.07;75.28
65203;HTU21D;51788;45.124;38.966;2023-10-13T05:35:08;9.18;75.40
65203;HTU21D;51788;45.124;38.966;2023-10-13T05:37:53;9.27;75.35
65203;HTU21D;51788;45.124;38.966;2023-10-13T05:40:37;9.36;75.40
65203;HTU21D;51788;45.124;38.966;2023-10-13T05:43:22;9.46;75.63
65203;HTU21D;51788;45.124;38.966;2023-10-13T05:46:06;9.69;75.28
65203;HTU21D;51788;45.124;38.966;2023-10-13T05:48:51;9.84;75.26
65203;HTU21D;51788;45.124;38.966;2023-10-13T05:51:20;9.94;75.50
65203;HTU21D;51788;45.124;38.966;2023-10-13T05:54:02;10.04;75.44
65203;HTU21D;51788;45.124;38.966;2023-10-13T05:56:48;10.12;75.59
65203;HTU21D;51788;45.124;38.966;2023-10-13T05:59:35;10.20;75.61
65203;HTU21D;51788;45.124;38.966;2023-10-13T06:02:21;10.25;75.79
65203;HTU21D;51788;45.124;38.966;2023-10-13T06:05:07;10.37;75.80
65203;HTU21D;51788;45.124;38.966;2023-10-13T06:07:53;10.52;75.69
65203;HTU21D;51788;45.124;38.966;2023-10-13T06:10:38;10.60;75.76
65203;HTU21D;51788;45.124;38.966;2023-10-13T06:13:22;10.68;75.71
65203;HTU21D;51788;45.124;38.966;2023-10-13T06:16:14;10.77;75.95
65203;HTU21D;51788;45.124;38.966;2023-10-13T06:18:59;10.88;75.99
65203;HTU21D;51788;45.124;38.966;2023-10-13T06:21:44;10.98;75.90
65203;HTU21D;51788;45.124;38.966;2023-10-13T06:24:29;11.05;75.89
65203;HTU21D;51788;45.124;38.966;2023-10-13T06:27:15;11.18;76.02
65203;HTU21D;51788;45.124;38.966;2023-10-13T06:30:00;11.28;75.92
65203;HTU21D;51788;45.124;38.966;2023-10-13T06:32:27;11.36;75.84
65203;HTU21D;51788;45.124;38.966;2023-10-13T06:34:53;11.45;75.76
65203;HTU21D;51788;45.124;38.966;2023-10-13T06:37:26;11.58;75.63
65203;HTU21D;51788;45.124;38.966;2023-10-13T06:40:11;11.73;75.43
65203;HTU21D;51788;45.124;38.966;2023-10-13T06:42:56;11.91;75.52
65203;HTU21D;51788;45.124;38.966;2023-10-13T06:45:37;12.06;75.16
65203;HTU21D;51788;45.124;38.966;2023-10-13T06:48:04;12.20;75.13
65203;HTU21D;51788;45.124;38.966;2023-10-13T06:50:31;12.35;74.82
65203;HTU21D;51788;45.124;38.966;2023-10-13T06:53:05;12.55;74.46
65203;HTU21D;51788;45.124;38.966;2023-10-13T06:55:31;12.72;74.29
65203;HTU21D;51788;45.124;38.966;2023-10-13T06:58:08;12.86;73.97
65203;HTU21D;51788;45.124;38.966;2023-10-13T07:00:40;12.88;73.97
65203;HTU21D;51788;45.124;38.966;2023-10-13T07:03:06;13.01;73.90
65203;HTU21D;51788;45.124;38.966;2023-10-13T07:05:36;13.11;73.61
65203;HTU21D;51788;45.124;38.966;2023-10-13T07:08:05;13.11;73.67
65203;HTU21D;51788;45.124;38.966;2023-10-13T07:10:32;13.17;73.66
65203;HTU21D;51788;45.124;38.966;2023-10-13T07:13:11;13.34;73.29
65203;HTU21D;51788;45.124;38.966;2023-10-13T07:15:39;13.40;73.12
65203;HTU21D;51788;45.124;38.966;2023-10-13T07:18:12;13.51;72.76
65203;HTU21D;51788;45.124;38.966;2023-10-13T07:20:41;13.52;72.61
65203;HTU21D;51788;45.124;38.966;2023-10-13T07:23:13;13.61;72.48
65203;HTU21D;51788;45.124;38.966;2023-10-13T07:25:56;13.70;72.19
65203;HTU21D;51788;45.124;38.966;2023-10-13T07:28:29;13.71;72.20
65203;HTU21D;51788;45.124;38.966;2023-10-13T07:31:03;13.85;71.92
65203;HTU21D;51788;45.124;38.966;2023-10-13T07:33:29;14.01;71.37
65203;HTU21D;51788;45.124;38.966;2023-10-13T07:36:07;14.05;71.01
65203;HTU21D;51788;45.124;38.966;2023-10-13T07:38:51;14.04;71.07
65203;HTU21D;51788;45.124;38.966;2023-10-13T07:41:36;14.08;70.90
65203;HTU21D;51788;45.124;38.966;2023-10-13T07:44:02;14.11;70.41
65203;HTU21D;51788;45.124;38.966;2023-10-13T07:46:30;14.13;70.38
65203;HTU21D;51788;45.124;38.966;2023-10-13T07:48:58;14.17;70.24
65203;HTU21D;51788;45.124;38.966;2023-10-13T07:51:46;14.24;69.95
65203;HTU21D;51788;45.124;38.966;2023-10-13T07:54:14;14.26;69.82
65203;HTU21D;51788;45.124;38.966;2023-10-13T07:56:48;14.30;69.66
65203;HTU21D;51788;45.124;38.966;2023-10-13T07:59:13;14.39;69.29
65203;HTU21D;51788;45.124;38.966;2023-10-13T08:01:42;14.56;68.67
65203;HTU21D;51788;45.124;38.966;2023-10-13T08:04:09;14.65;68.36
65203;HTU21D;51788;45.124;38.966;2023-10-13T08:06:38;14.71;68.09
65203;HTU21D;51788;45.124;38.966;2023-10-13T08:09:09;14.74;67.91
65203;HTU21D;51788;45.124;38.966;2023-10-13T08:11:36;14.78;67.78
65203;HTU21D;51788;45.124;38.966;2023-10-13T08:14:04;14.81;67.54
65203;HTU21D;51788;45.124;38.966;2023-10-13T08:16:40;14.93;66.77
65203;HTU21D;51788;45.124;38.966;2023-10-13T08:19:39;15.02;66.27
65203;HTU21D;51788;45.124;38.966;2023-10-13T08:22:09;15.12;66.04
65203;HTU21D;51788;45.124;38.966;2023-10-13T08:24:45;15.21;65.91
65203;HTU21D;51788;45.124;38.966;2023-10-13T08:27:12;15.25;65.59
65203;HTU21D;51788;45.124;38.966;2023-10-13T08:29:57;15.32;65.33
65203;HTU21D;51788;45.124;38.966;2023-10-13T08:32:25;15.39;65.17
65203;HTU21D;51788;45.124;38.966;2023-10-13T08:35:02;15.47;64.72
65203;HTU21D;51788;45.124;38.966;2023-10-13T08:37:31;15.58;64.05
65203;HTU21D;51788;45.124;38.966;2023-10-13T08:40:15;15.63;63.96
65203;HTU21D;51788;45.124;38.966;2023-10-13T08:43:11;15.75;63.45
65203;HTU21D;51788;45.124;38.966;2023-10-13T08:45:41;15.80;63.20
65203;HTU21D;51788;45.124;38.966;2023-10-13T08:48:11;15.88;62.96
65203;HTU21D;51788;45.124;38.966;2023-10-13T08:50:51;15.98;61.74
65203;HTU21D;51788;45.124;38.966;2023-10-13T08:58:41;0.00;0.00
65203;HTU21D;51788;45.124;38.966;2023-10-13T09:01:27;0.00;0.00
65203;HTU21D;51788;45.124;38.966;2023-10-13T09:04:07;0.00;0.00
65203;HTU21D;51788;45.124;38.966;2023-10-13T09:06:57;0.00;0.00
65203;HTU21D;51788;45.124;38.966;2023-10-13T09:12:23;0.00;0.00
65203;HTU21D;51788;45.124;38.966;2023-10-13T09:15:03;0.00;0.00
65203;HTU21D;51788;45.124;38.966;2023-10-13T09:17:43;0.00;57.22
65203;HTU21D;51788;45.124;38.966;2023-10-13T09:20:30;16.90;57.19
65203;HTU21D;51788;45.124;38.966;2023-10-13T09:23:14;16.90;57.16
65203;HTU21D;51788;45.124;38.966;2023-10-13T09:25:50;16.85;57.11
65203;HTU21D;51788;45.124;38.966;2023-10-13T09:28:24;16.87;56.06
65203;HTU21D;51788;45.124;38.966;2023-10-13T09:30:54;16.96;55.07
65203;HTU21D;51788;45.124;38.966;2023-10-13T09:33:28;17.06;54.94
65203;HTU21D;51788;45.124;38.966;2023-10-13T09:36:02;17.13;54.43
65203;HTU21D;51788;45.124;38.966;2023-10-13T09:38:37;17.20;53.62
65203;HTU21D;51788;45.124;38.966;2023-10-13T09:41:06;17.23;53.83
65203;HTU21D;51788;45.124;38.966;2023-10-13T09:43:44;17.19;53.72
65203;HTU21D;51788;45.124;38.966;2023-10-13T09:46:15;17.15;54.01
65203;HTU21D;51788;45.124;38.966;2023-10-13T09:48:45;17.16;54.17
65203;HTU21D;51788;45.124;38.966;2023-10-13T09:51:15;17.13;54.26
65203;HTU21D;51788;45.124;38.966;2023-10-13T09:54:11;17.03;54.13
65203;HTU21D;51788;45.124;38.966;2023-10-13T09:56:47;17.22;53.87
65203;HTU21D;51788;45.124;38.966;2023-10-13T09:59:24;17.84;52.04
65203;HTU21D;51788;45.124;38.966;2023-10-13T10:01:53;17.79;52.20
65203;HTU21D;51788;45.124;38.966;2023-10-13T10:04:24;17.67;52.33
65203;HTU21D;51788;45.124;38.966;2023-10-13T10:06:54;17.61;52.18
65203;HTU21D;51788;45.124;38.966;2023-10-13T10:09:27;17.46;52.38
65203;HTU21D;51788;45.124;38.966;2023-10-13T10:17:43;17.33;52.53
65203;HTU21D;51788;45.124;38.966;2023-10-13T10:20:10;17.35;52.14
65203;HTU21D;51788;45.124;38.966;2023-10-13T10:22:58;17.34;51.53
65203;HTU21D;51788;45.124;38.966;2023-10-13T10:25:34;17.43;51.19
65203;HTU21D;51788;45.124;38.966;2023-10-13T10:28:02;17.43;51.59
65203;HTU21D;51788;45.124;38.966;2023-10-13T10:30:32;17.44;50.88
65203;HTU21D;51788;45.124;38.966;2023-10-13T10:33:01;17.58;49.98
65203;HTU21D;51788;45.124;38.966;2023-10-13T10:35:34;17.65;48.79
65203;HTU21D;51788;45.124;38.966;2023-10-13T10:38:16;17.75;48.10
65203;HTU21D;51788;45.124;38.966;2023-10-13T10:40:57;17.73;48.66
65203;HTU21D;51788;45.124;38.966;2023-10-13T10:43:35;17.69;48.38
65203;HTU21D;51788;45.124;38.966;2023-10-13T10:46:12;17.76;48.07
65203;HTU21D;51788;45.124;38.966;2023-10-13T10:48:39;17.80;47.99
65203;HTU21D;51788;45.124;38.966;2023-10-13T10:51:13;17.88;47.58
65203;HTU21D;51788;45.124;38.966;2023-10-13T10:53:41;17.96;47.34
65203;HTU21D;51788;45.124;38.966;2023-10-13T10:56:11;17.94;47.69
65203;HTU21D;51788;45.124;38.966;2023-10-13T10:59:10;17.96;47.82
65203;HTU21D;51788;45.124;38.966;2023-10-13T11:01:47;18.03;47.27
65203;HTU21D;51788;45.124;38.966;2023-10-13T11:04:14;18.11;46.77
65203;HTU21D;51788;45.124;38.966;2023-10-13T11:06:51;18.13;46.67
65203;HTU21D;51788;45.124;38.966;2023-10-13T11:09:38;18.17;46.22
65203;HTU21D;51788;45.124;38.966;2023-10-13T11:12:12;18.11;46.86
65203;HTU21D;51788;45.124;38.966;2023-10-13T11:14:49;18.11;46.67
65203;HTU21D;51788;45.124;38.966;2023-10-13T11:17:25;18.20;46.47
65203;HTU21D;51788;45.124;38.966;2023-10-13T11:20:18;18.30;45.83
65203;HTU21D;51788;45.124;38.966;2023-10-13T11:22:52;18.44;45.57
65203;HTU21D;51788;45.124;38.966;2023-10-13T11:25:25;18.50;45.48
65203;HTU21D;51788;45.124;38.966;2023-10-13T11:28:10;18.47;45.17
65203;HTU21D;51788;45.124;38.966;2023-10-13T11:30:43;18.52;45.43
65203;HTU21D;51788;45.124;38.966;2023-10-13T11:33:15;18.44;44.90
65203;HTU21D;51788;45.124;38.966;2023-10-13T11:35:44;18.29;46.12
65203;HTU21D;51788;45.124;38.966;2023-10-13T11:41:00;18.32;45.36
65203;HTU21D;51788;45.124;38.966;2023-10-13T11:43:35;18.44;45.31
65203;HTU21D;51788;45.124;38.966;2023-10-13T11:46:19;18.53;45.37
65203;HTU21D;51788;45.124;38.966;2023-10-13T11:49:01;18.59;44.93
65203;HTU21D;51788;45.124;38.966;2023-10-13T11:51:31;18.62;44.81
65203;HTU21D;51788;45.124;38.966;2023-10-13T11:53:58;18.77;44.25
65203;HTU21D;51788;45.124;38.966;2023-10-13T11:56:24;18.80;44.17
65203;HTU21D;51788;45.124;38.966;2023-10-13T11:58:51;18.73;44.48
65203;HTU21D;51788;45.124;38.966;2023-10-13T12:01:17;18.67;44.78
65203;HTU21D;51788;45.124;38.966;2023-10-13T12:03:45;18.65;44.72
65203;HTU21D;51788;45.124;38.966;2023-10-13T12:06:31;18.71;44.56
65203;HTU21D;51788;45.124;38.966;2023-10-13T12:09:05;18.72;44.48
65203;HTU21D;51788;45.124;38.966;2023-10-13T12:11:47;18.67;44.61
65203;HTU21D;51788;45.124;38.966;2023-10-13T12:14:16;18.72;44.58
65203;HTU21D;51788;45.124;38.966;2023-10-13T12:16:47;18.84;44.42
65203;HTU21D;51788;45.124;38.966;2023-10-13T12:19:21;18.91;44.30
65203;HTU21D;51788;45.124;38.966;2023-10-13T12:21:50;18.98;44.03
65203;HTU21D;51788;45.124;38.966;2023-10-13T12:24:20;18.93;44.21
65203;HTU21D;51788;45.124;38.966;2023-10-13T12:27:06;18.81;44.42
65203;HTU21D;51788;45.124;38.966;2023-10-13T12:29:51;18.83;44.64
65203;HTU21D;51788;45.124;38.966;2023-10-13T12:32:18;18.74;44.87
65203;HTU21D;51788;45.124;38.966;2023-10-13T12:34:57;18.70;44.99
65203;HTU21D;51788;45.124;38.966;2023-10-13T12:37:24;18.72;44.97
65203;HTU21D;51788;45.124;38.966;2023-10-13T12:40:03;18.66;45.22
65203;HTU21D;51788;45.124;38.966;2023-10-13T12:42:48;18.55;45.41
65203;HTU21D;51788;45.124;38.966;2023-10-13T12:45:32;18.52;45.60
65203;HTU21D;51788;45.124;38.966;2023-10-13T12:48:16;18.50;45.56
65203;HTU21D;51788;45.124;38.966;2023-10-13T12:51:01;18.54;45.56
65203;HTU21D;51788;45.124;38.966;2023-10-13T12:53:55;18.51;45.60
65203;HTU21D;51788;45.124;38.966;2023-10-13T12:56:30;18.61;45.48
65203;HTU21D;51788;45.124;38.966;2023-10-13T12:58:56;18.68;45.23
65203;HTU21D;51788;45.124;38.966;2023-10-13T13:01:23;18.87;45.05
65203;HTU21D;51788;45.124;38.966;2023-10-13T13:03:52;18.99;44.84
65203;HTU21D;51788;45.124;38.966;2023-10-13T13:06:25;19.05;44.74
65203;HTU21D;51788;45.124;38.966;2023-10-13T13:08:55;19.03;44.86
65203;HTU21D;51788;45.124;38.966;2023-10-13T13:11:22;18.93;45.14
65203;HTU21D;51788;45.124;38.966;2023-10-13T13:13:48;18.86;45.09
65203;HTU21D;51788;45.124;38.966;2023-10-13T13:16:17;18.77;45.41
65203;HTU21D;51788;45.124;38.966;2023-10-13T13:18:50;18.80;45.40
65203;HTU21D;51788;45.124;38.966;2023-10-13T13:21:16;18.83;45.25
65203;HTU21D;51788;45.124;38.966;2023-10-13T13:23:53;18.77;45.45
65203;HTU21D;51788;45.124;38.966;2023-10-13T13:26:22;18.86;45.35
65203;HTU21D;51788;45.124;38.966;2023-10-13T13:28:49;18.87;45.25
65203;HTU21D;51788;45.124;38.966;2023-10-13T13:31:18;18.74;45.53
65203;HTU21D;51788;45.124;38.966;2023-10-13T13:33:44;18.67;45.64
65203;HTU21D;51788;45.124;38.966;2023-10-13T13:36:10;18.57;45.80
65203;HTU21D;51788;45.124;38.966;2023-10-13T13:38:41;18.47;46.03
65203;HTU21D;51788;45.124;38.966;2023-10-13T13:41:13;18.42;45.99
65203;HTU21D;51788;45.124;38.966;2023-10-13T13:43:49;18.34;46.23
65203;HTU21D;51788;45.124;38.966;2023-10-13T13:46:19;18.37;46.14
65203;HTU21D;51788;45.124;38.966;2023-10-13T13:48:51;18.35;46.19
65203;HTU21D;51788;45.124;38.966;2023-10-13T13:51:17;18.33;46.30
65203;HTU21D;51788;45.124;38.966;2023-10-13T13:53:52;18.27;46.39
65203;HTU21D;51788;45.124;38.966;2023-10-13T13:56:19;18.24;46.47
65203;HTU21D;51788;45.124;38.966;2023-10-13T13:58:45;18.27;46.46
65203;HTU21D;51788;45.124;38.966;2023-10-13T14:01:11;18.25;46.54
65203;HTU21D;51788;45.124;38.966;2023-10-13T14:03:42;18.22;46.61
65203;HTU21D;51788;45.124;38.966;2023-10-13T14:06:12;18.20;46.70
65203;HTU21D;51788;45.124;38.966;2023-10-13T14:08:44;18.17;46.80
65203;HTU21D;51788;45.124;38.966;2023-10-13T14:11:15;18.13;46.86
65203;HTU21D;51788;45.124;38.966;2023-10-13T14:13:59;18.04;47.05
65203;HTU21D;51788;45.124;38.966;2023-10-13T14:16:30;17.97;47.18
65203;HTU21D;51788;45.124;38.966;2023-10-13T14:18:59;17.88;47.39
65203;HTU21D;51788;45.124;38.966;2023-10-13T14:21:27;17.79;47.56
65203;HTU21D;51788;45.124;38.966;2023-10-13T14:23:53;17.68;47.73
65203;HTU21D;51788;45.124;38.966;2023-10-13T14:26:21;17.59;47.92
65203;HTU21D;51788;45.124;38.966;2023-10-13T14:28:47;17.52;48.05
65203;HTU21D;51788;45.124;38.966;2023-10-13T14:31:30;17.39;48.29
65203;HTU21D;51788;45.124;38.966;2023-10-13T14:33:57;17.29;48.50
65203;HTU21D;51788;45.124;38.966;2023-10-13T14:36:24;17.18;48.72
65203;HTU21D;51788;45.124;38.966;2023-10-13T14:38:55;17.08;48.91
65203;HTU21D;51788;45.124;38.966;2023-10-13T14:41:21;17.00;49.08
65203;HTU21D;51788;45.124;38.966;2023-10-13T14:43:47;16.91;49.25
65203;HTU21D;51788;45.124;38.966;2023-10-13T14:46:17;16.80;49.47
65203;HTU21D;51788;45.124;38.966;2023-10-13T14:48:44;16.72;49.67
65203;HTU21D;51788;45.124;38.966;2023-10-13T14:51:13;16.63;49.88
65203;HTU21D;51788;45.124;38.966;2023-10-13T14:53:40;16.54;50.05
65203;HTU21D;51788;45.124;38.966;2023-10-13T14:56:13;16.45;50.28
65203;HTU21D;51788;45.124;38.966;2023-10-13T14:58:40;16.37;50.50
65203;HTU21D;51788;45.124;38.966;2023-10-13T15:01:17;16.27;50.76
65203;HTU21D;51788;45.124;38.966;2023-10-13T15:03:43;16.20;50.84
65203;HTU21D;51788;45.124;38.966;2023-10-13T15:06:24;16.14;51.12
65203;HTU21D;51788;45.124;38.966;2023-10-13T15:08:52;16.05;51.19
65203;HTU21D;51788;45.124;38.966;2023-10-13T15:11:22;15.97;51.39
65203;HTU21D;51788;45.124;38.966;2023-10-13T15:13:53;15.87;51.58
65203;HTU21D;51788;45.124;38.966;2023-10-13T15:16:20;15.80;51.75
65203;HTU21D;51788;45.124;38.966;2023-10-13T15:18:48;15.72;51.94
65203;HTU21D;51788;45.124;38.966;2023-10-13T15:23:53;15.58;52.36
65203;HTU21D;51788;45.124;38.966;2023-10-13T15:26:21;15.53;52.58
65203;HTU21D;51788;45.124;38.966;2023-10-13T15:28:49;15.49;52.72
65203;HTU21D;51788;45.124;38.966;2023-10-13T15:31:16;15.47;52.82
65203;HTU21D;51788;45.124;38.966;2023-10-13T15:33:54;15.43;52.95
65203;HTU21D;51788;45.124;38.966;2023-10-13T15:36:24;15.36;53.20
65203;HTU21D;51788;45.124;38.966;2023-10-13T15:38:50;15.33;53.40
65203;HTU21D;51788;45.124;38.966;2023-10-13T15:41:23;15.26;53.59
65203;HTU21D;51788;45.124;38.966;2023-10-13T15:43:49;15.24;53.64
65203;HTU21D;51788;45.124;38.966;2023-10-13T15:46:21;15.22;53.77
65203;HTU21D;51788;45.124;38.966;2023-10-13T15:48:51;15.17;54.00
65203;HTU21D;51788;45.124;38.966;2023-10-13T15:51:18;15.11;54.06
65203;HTU21D;51788;45.124;38.966;2023-10-13T15:53:44;15.10;54.11
65203;HTU21D;51788;45.124;38.966;2023-10-13T15:56:16;15.07;54.26
65203;HTU21D;51788;45.124;38.966;2023-10-13T15:58:48;15.04;54.32
65203;HTU21D;51788;45.124;38.966;2023-10-13T16:01:16;15.08;54.26
65203;HTU21D;51788;45.124;38.966;2023-10-13T16:03:43;15.06;54.30
65203;HTU21D;51788;45.124;38.966;2023-10-13T16:06:10;15.07;54.36
65203;HTU21D;51788;45.124;38.966;2023-10-13T16:08:37;15.04;54.42
65203;HTU21D;51788;45.124;38.966;2023-10-13T16:11:05;15.01;54.50
65203;HTU21D;51788;45.124;38.966;2023-10-13T16:13:35;14.97;54.62
65203;HTU21D;51788;45.124;38.966;2023-10-13T16:16:05;14.93;54.71